Time;durP1;ratioP1;P1;durP2;ratioP2;P2;SDS_P1;SDS_P2;PMS_P1;PMS_P2;Temp;Humidity;BMP_temperature;BMP_pressure;BME280_temperature;BME280_humidity;BME280_pressure;Samples;Min_cycle;Max_cycle;Signal;HPM_P1;HPM_P2
2023/06/20 00:00:40;;;;;;;1999.90;999.90;;;21.10;99.90;;;;;;4954640;29;20039;-71
2023/06/20 00:03:05;;;;;;;1999.90;999.90;;;21.20;99.90;;;;;;4954510;28;20023;-74
2023/06/20 00:05:31;;;;;;;1999.90;999.90;;;21.20;99.90;;;;;;4955186;29;20027;-71
2023/06/20 00:07:57;;;;;;;1999.90;999.90;;;21.20;99.90;;;;;;4954915;28;20034;-71
2023/06/20 00:10:22;;;;;;;1999.90;999.90;;;21.30;99.90;;;;;;4961151;28;20101;-71
2023/06/20 00:12:48;;;;;;;1999.90;999.90;;;21.30;99.90;;;;;;4968813;28;20034;-71
2023/06/20 00:15:13;;;;;;;1999.90;999.90;;;21.30;99.90;;;;;;4974299;28;20398;-73
2023/06/20 00:17:40;;;;;;;1999.90;999.90;;;21.40;99.90;;;;;;4964024;28;20038;-73
2023/06/20 00:20:07;;;;;;;1999.90;999.90;;;21.40;99.90;;;;;;4954432;28;20031;-71
2023/06/20 00:22:34;;;;;;;1999.90;999.90;;;21.50;99.90;;;;;;4954979;28;20019;-71
2023/06/20 00:25:01;;;;;;;1999.90;999.90;;;21.50;99.90;;;;;;4954699;29;20062;-71
2023/06/20 00:27:27;;;;;;;1999.90;999.90;;;21.50;99.90;;;;;;4955011;28;20023;-71
2023/06/20 00:29:52;;;;;;;1999.90;999.90;;;21.50;99.90;;;;;;4954710;29;20542;-73
2023/06/20 00:32:18;;;;;;;1999.90;999.90;;;21.50;99.90;;;;;;4954627;28;20023;-74
2023/06/20 00:34:44;;;;;;;1999.90;999.90;;;21.60;99.90;;;;;;4954638;29;20028;-71
2023/06/20 00:37:09;;;;;;;1999.90;999.90;;;21.50;99.90;;;;;;4954700;28;20062;-71
2023/06/20 00:39:35;;;;;;;1999.90;999.90;;;21.50;99.90;;;;;;4954855;29;20054;-71
2023/06/20 00:42:01;;;;;;;1999.90;999.90;;;21.60;99.90;;;;;;4954369;28;20102;-73
2023/06/20 00:44:27;;;;;;;1999.90;999.90;;;21.60;99.90;;;;;;4954657;29;20023;-74
2023/06/20 00:46:52;;;;;;;1999.90;999.90;;;21.60;99.90;;;;;;4954528;28;20028;-71
2023/06/20 00:49:18;;;;;;;1999.90;999.90;;;21.60;99.90;;;;;;4954153;29;20086;-71
2023/06/20 00:51:44;;;;;;;1999.90;999.90;;;21.60;99.90;;;;;;4954532;28;20027;-71
2023/06/20 00:54:10;;;;;;;1999.90;999.90;;;21.60;99.90;;;;;;4937001;29;20075;-71
2023/06/20 00:56:36;;;;;;;1999.90;999.90;;;21.50;99.90;;;;;;4954596;29;20452;-74
2023/06/20 00:59:03;;;;;;;1999.90;999.90;;;21.50;99.90;;;;;;4954502;28;20058;-74
2023/06/20 01:01:31;;;;;;;1999.90;999.90;;;21.40;99.90;;;;;;4954048;28;20015;-71
2023/06/20 01:03:58;;;;;;;1999.90;999.90;;;21.50;99.90;;;;;;4937138;29;20039;-71
2023/06/20 01:06:42;;;;;;;1999.90;999.90;;;21.50;99.90;;;;;;4954296;29;20019;-71
2023/06/20 01:09:21;;;;;;;1999.90;999.90;;;21.50;99.90;;;;;;4956053;28;20491;-74
2023/06/20 01:11:52;;;;;;;1999.90;999.90;;;21.50;99.90;;;;;;4957186;28;20038;-71
2023/06/20 01:14:20;;;;;;;1999.90;999.90;;;21.40;99.90;;;;;;4976850;28;20062;-73
2023/06/20 01:17:05;;;;;;;1999.90;999.90;;;21.40;99.90;;;;;;4976932;28;20031;-71
2023/06/20 01:20:04;;;;;;;1999.90;999.90;;;21.30;99.90;;;;;;4952583;28;20102;-71
2023/06/20 01:22:51;;;;;;;1999.90;999.90;;;21.20;99.90;;;;;;4938459;28;20050;-71
2023/06/20 01:25:31;;;;;;;1999.90;999.90;;;21.10;99.90;;;;;;4957198;29;20038;-74
2023/06/20 01:28:08;;;;;;;1999.90;999.90;;;21.10;99.90;;;;;;4940616;29;20379;-71
2023/06/20 01:30:42;;;;;;;1999.90;999.90;;;21.00;99.90;;;;;;4957716;29;20055;-71
2023/06/20 01:33:10;;;;;;;1999.90;999.90;;;20.90;99.90;;;;;;4957917;28;20050;-73
2023/06/20 01:35:38;;;;;;;1999.90;999.90;;;20.90;99.90;;;;;;4957826;29;20055;-74
2023/06/20 01:38:08;;;;;;;1999.90;999.90;;;20.80;99.90;;;;;;4957479;28;20024;-73
2023/06/20 01:40:36;;;;;;;1999.90;999.90;;;20.80;99.90;;;;;;4957880;29;20098;-71
2023/06/20 01:43:04;;;;;;;1999.90;999.90;;;20.70;99.90;;;;;;4957481;28;20101;-73
2023/06/20 01:45:35;;;;;;;1999.90;999.90;;;20.70;99.90;;;;;;4957555;29;20451;-71
2023/06/20 01:48:04;;;;;;;1999.90;999.90;;;20.80;99.90;;;;;;4957408;28;20059;-71
2023/06/20 01:50:31;;;;;;;1999.90;999.90;;;20.80;99.90;;;;;;4957267;29;20031;-71
2023/06/20 01:52:59;;;;;;;1999.90;999.90;;;20.80;99.90;;;;;;4957346;28;20035;-71
2023/06/20 01:55:26;;;;;;;1999.90;999.90;;;20.80;99.90;;;;;;4957436;29;20401;-71
2023/06/20 01:57:55;;;;;;;1999.90;999.90;;;20.90;99.90;;;;;;4957408;28;20398;-71
2023/06/20 02:00:24;;;;;;;1999.90;999.90;;;20.90;99.90;;;;;;4962788;28;20022;-74
2023/06/20 02:02:50;;;;;;;1999.90;999.90;;;20.90;99.90;;;;;;4959637;28;20023;-73
2023/06/20 02:05:17;;;;;;;1999.90;999.90;;;20.90;99.90;;;;;;4957447;29;20039;-71
2023/06/20 02:07:44;;;;;;;1999.90;999.90;;;20.80;99.90;;;;;;4957025;28;20412;-71
2023/06/20 02:10:13;;;;;;;1999.90;999.90;;;20.80;99.90;;;;;;4957529;29;20467;-71
2023/06/20 02:12:41;;;;;;;1999.90;999.90;;;20.80;99.90;;;;;;4958265;28;20043;-71
2023/06/20 02:15:08;;;;;;;1999.90;999.90;;;20.80;99.90;;;;;;4957394;29;20096;-73
2023/06/20 02:17:36;;;;;;;1999.90;999.90;;;20.80;99.90;;;;;;4957293;28;20075;-70
2023/06/20 02:20:03;;;;;;;1999.90;999.90;;;20.70;99.90;;;;;;4956011;28;20030;-70
2023/06/20 02:22:29;;;;;;;1999.90;999.90;;;20.70;99.90;;;;;;4956627;28;20031;-70
2023/06/20 02:25:00;;;;;;;1999.90;999.90;;;20.80;99.90;;;;;;4959796;28;20031;-71
2023/06/20 02:27:26;;;;;;;1999.90;999.90;;;20.80;99.90;;;;;;4974583;28;20031;-73
2023/06/20 02:29:53;;;;;;;1999.90;999.90;;;20.80;99.90;;;;;;4957157;29;20034;-71
2023/06/20 02:32:20;;;;;;;1999.90;999.90;;;20.80;99.90;;;;;;4956535;28;20106;-71
2023/06/20 02:34:48;;;;;;;1999.90;999.90;;;20.80;99.90;;;;;;4965160;28;20062;-71
2023/06/20 02:37:14;;;;;;;1999.90;999.90;;;21.00;99.90;;;;;;4976052;28;20374;-72
2023/06/20 02:39:40;;;;;;;1999.90;999.90;;;21.00;99.90;;;;;;4939822;29;20027;-72
2023/06/20 02:42:05;;;;;;;1999.90;999.90;;;21.00;99.90;;;;;;4956202;29;20035;-72
2023/06/20 02:44:31;;;;;;;1999.90;999.90;;;20.80;99.90;;;;;;4956416;28;20415;-71
2023/06/20 02:47:15;;;;;;;1999.90;999.90;;;20.40;99.90;;;;;;4956437;29;20078;-71
2023/06/20 02:49:52;;;;;;;1999.90;999.90;;;20.20;99.90;;;;;;4956370;28;20035;-71
2023/06/20 02:52:23;;;;;;;1999.90;999.90;;;20.10;99.90;;;;;;4956183;29;20034;-73
2023/06/20 02:55:10;;;;;;;1999.90;999.90;;;20.00;99.90;;;;;;4956179;28;20031;-71
2023/06/20 02:57:44;;;;;;;1999.90;999.90;;;20.00;99.90;;;;;;4956102;28;20106;-71
2023/06/20 03:00:11;;;;;;;1999.90;999.90;;;20.00;99.90;;;;;;4960552;28;20097;-71
2023/06/20 03:02:51;;;;;;;1999.90;999.90;;;19.90;99.90;;;;;;4960176;28;20107;-71
2023/06/20 03:05:18;;;;;;;1999.90;999.90;;;19.80;99.90;;;;;;4956049;29;20046;-72
2023/06/20 03:07:44;;;;;;;1999.90;999.90;;;19.80;99.90;;;;;;4956144;28;20029;-74
2023/06/20 03:10:10;;;;;;;1999.90;999.90;;;19.70;99.90;;;;;;4956382;29;20070;-72
2023/06/20 03:12:37;;;;;;;1999.90;999.90;;;19.60;99.90;;;;;;4960237;28;20201;-74
2023/06/20 06:35:59;;;;;;;1999.90;999.90;;;20.40;99.90;;;;;;5102308;27;20338;-75
2023/06/20 06:38:25;;;;;;;1999.90;999.90;;;20.10;99.90;;;;;;5082699;28;20030;-78
2023/06/20 06:40:54;;;;;;;1999.90;999.90;;;20.20;99.90;;;;;;5084703;28;20115;-78
2023/06/20 06:43:20;;;;;;;1999.90;999.90;;;20.30;99.90;;;;;;5079228;28;20560;-74
2023/06/20 06:45:46;;;;;;;1999.90;999.90;;;20.20;99.90;;;;;;5082342;28;20487;-78
2023/06/20 06:48:12;;;;;;;1999.90;999.90;;;20.20;99.90;;;;;;5080952;28;20077;-75
2023/06/20 06:50:38;;;;;;;1999.90;999.90;;;20.30;99.90;;;;;;5085084;28;20486;-77
2023/06/20 06:53:03;;;;;;;1999.90;999.90;;;20.20;99.90;;;;;;5076697;28;20063;-78
2023/06/20 06:55:29;;;;;;;1999.90;999.90;;;20.20;99.90;;;;;;5082820;28;20020;-79
2023/06/20 06:57:55;;;;;;;1999.90;999.90;;;20.20;99.90;;;;;;5081252;28;20415;-77
2023/06/20 07:00:21;;;;;;;1999.90;999.90;;;20.10;99.90;;;;;;5085254;28;20478;-77
2023/06/20 07:02:47;;;;;;;1999.90;999.90;;;20.10;99.90;;;;;;5082277;28;20032;-77
2023/06/20 07:05:13;;;;;;;1999.90;999.90;;;20.20;99.90;;;;;;5087419;28;20038;-78
2023/06/20 07:07:38;;;;;;;1999.90;999.90;;;20.30;99.90;;;;;;5077779;28;20082;-78
2023/06/20 07:10:04;;;;;;;1999.90;999.90;;;20.20;99.90;;;;;;5083674;28;20077;-76
2023/06/20 07:12:31;;;;;;;1999.90;999.90;;;20.20;99.90;;;;;;5081293;28;20040;-78
2023/06/20 07:14:56;;;;;;;1999.90;999.90;;;20.30;99.90;;;;;;5087086;28;20028;-77
2023/06/20 07:17:25;;;;;;;1999.90;999.90;;;20.30;99.90;;;;;;5074091;28;20394;-77
2023/06/20 07:19:52;;;;;;;1999.90;999.90;;;20.30;99.90;;;;;;5082914;28;20024;-77
2023/06/20 07:22:18;;;;;;;1999.90;999.90;;;20.40;99.90;;;;;;5083849;28;20509;-77
2023/06/20 07:24:44;;;;;;;1999.90;999.90;;;20.40;99.90;;;;;;5087962;28;20029;-77
2023/06/20 07:27:10;;;;;;;1999.90;999.90;;;20.50;99.90;;;;;;5080100;28;20513;-78
2023/06/20 07:29:36;;;;;;;1999.90;999.90;;;20.50;99.90;;;;;;5087665;28;20058;-79
2023/06/20 07:32:02;;;;;;;1999.90;999.90;;;20.60;99.90;;;;;;5082876;28;20040;-77
2023/06/20 07:34:28;;;;;;;1999.90;999.90;;;20.60;99.90;;;;;;5084471;28;20055;-77
2023/06/20 07:36:53;;;;;;;1999.90;999.90;;;20.60;99.90;;;;;;5084109;28;20028;-76
2023/06/20 07:39:19;;;;;;;1999.90;999.90;;;20.60;99.90;;;;;;5080296;28;20509;-78
2023/06/20 07:41:45;;;;;;;1999.90;999.90;;;20.50;99.90;;;;;;5080930;28;20539;-78
2023/06/20 07:44:11;;;;;;;1999.90;999.90;;;20.50;99.90;;;;;;5083434;28;20036;-77
2023/06/20 07:46:38;;;;;;;1999.90;999.90;;;20.50;99.90;;;;;;5071008;28;20506;-78
2023/06/20 07:49:03;;;;;;;1999.90;999.90;;;20.50;99.90;;;;;;5060537;28;20051;-77
2023/06/20 07:51:33;;;;;;;1999.90;999.90;;;20.50;99.90;;;;;;5070776;28;20431;-78
2023/06/20 07:54:00;;;;;;;1999.90;999.90;;;20.50;99.90;;;;;;5067509;28;20036;-78
2023/06/20 07:56:26;;;;;;;1999.90;999.90;;;20.50;99.90;;;;;;5077483;28;20020;-78
2023/06/20 07:58:51;;;;;;;1999.90;999.90;;;20.50;99.90;;;;;;5061751;28;20040;-77
2023/06/20 08:01:18;;;;;;;1999.90;999.90;;;20.50;99.90;;;;;;5066946;28;20334;-76
2023/06/20 08:03:43;;;;;;;1999.90;999.90;;;20.60;99.90;;;;;;5057364;28;20043;-78
2023/06/20 08:06:10;;;;;;;1999.90;999.90;;;20.60;99.90;;;;;;5069704;28;20032;-79
2023/06/20 08:08:37;;;;;;;1999.90;999.90;;;20.50;99.90;;;;;;5064816;28;20037;-78
2023/06/20 08:11:03;;;;;;;1999.90;999.90;;;20.50;99.90;;;;;;5071181;28;20034;-79
2023/06/20 08:13:29;;;;;;;1999.90;999.90;;;20.50;99.90;;;;;;5064516;28;20024;-78
2023/06/20 08:15:55;;;;;;;1999.90;999.90;;;20.60;99.90;;;;;;5064685;28;20036;-77
2023/06/20 08:18:20;;;;;;;1999.90;999.90;;;20.60;99.90;;;;;;5060573;28;20111;-77
2023/06/20 08:20:47;;;;;;;1999.90;999.90;;;20.50;99.90;;;;;;5063151;28;20031;-79
2023/06/20 08:23:13;;;;;;;1999.90;999.90;;;20.50;99.90;;;;;;5064647;28;20029;-79
2023/06/20 08:25:39;;;;;;;1999.90;999.90;;;20.60;99.90;;;;;;5071816;28;20372;-78
2023/06/20 08:28:04;;;;;;;1999.90;999.90;;;20.70;99.90;;;;;;5059434;28;20028;-77
2023/06/20 08:30:30;;;;;;;1999.90;999.90;;;20.70;99.90;;;;;;5061261;28;20045;-79
2023/06/20 08:32:56;;;;;;;1999.90;999.90;;;20.60;99.90;;;;;;5063857;28;20433;-78
2023/06/20 08:35:21;;;;;;;1999.90;999.90;;;20.60;99.90;;;;;;5070313;28;20078;-79
2023/06/20 08:37:48;;;;;;;1999.90;999.90;;;20.60;99.90;;;;;;5063070;28;20028;-78
2023/06/20 08:40:14;;;;;;;1999.90;999.90;;;20.70;99.90;;;;;;5067121;28;20043;-77
2023/06/20 08:42:42;;;;;;;1999.90;999.90;;;20.70;99.90;;;;;;5061303;28;20032;-77
2023/06/20 08:45:08;;;;;;;1999.90;999.90;;;20.60;99.90;;;;;;5053858;28;20024;-77
2023/06/20 08:47:34;;;;;;;1999.90;999.90;;;20.60;99.90;;;;;;5058359;28;20433;-79
2023/06/20 08:50:00;;;;;;;1999.90;999.90;;;20.60;99.90;;;;;;5068169;28;20059;-77
2023/06/20 08:52:30;;;;;;;1999.90;999.90;;;20.60;99.90;;;;;;5069196;28;20024;-78
2023/06/20 08:54:57;;;;;;;1999.90;999.90;;;20.70;99.90;;;;;;5060298;28;20071;-80
2023/06/20 08:57:23;;;;;;;1999.90;999.90;;;20.70;99.90;;;;;;5060664;28;20031;-80
2023/06/20 08:59:49;;;;;;;1999.90;999.90;;;20.70;99.90;;;;;;5068440;28;20522;-81
2023/06/20 09:02:16;;;;;;;1999.90;999.90;;;20.70;99.90;;;;;;5066066;28;20024;-79
2023/06/20 09:04:41;;;;;;;1999.90;999.90;;;20.80;99.90;;;;;;5066463;28;20040;-79
2023/06/20 09:07:17;;;;;;;1999.90;999.90;;;20.90;99.90;;;;;;5061035;28;20043;-80
2023/06/20 09:09:44;;;;;;;1999.90;999.90;;;21.00;99.90;;;;;;5058494;28;20024;-80
2023/06/20 09:12:09;;;;;;;1999.90;999.90;;;21.00;99.90;;;;;;5065688;28;20032;-80
2023/06/20 09:14:35;;;;;;;1999.90;999.90;;;21.00;99.90;;;;;;5068137;28;20040;-80
2023/06/20 09:17:01;;;;;;;1999.90;999.90;;;21.00;99.90;;;;;;5062518;28;20028;-79
2023/06/20 09:19:26;;;;;;;1999.90;999.90;;;20.80;99.90;;;;;;5052355;28;20045;-74
2023/06/20 09:22:03;;;;;;;1999.90;999.90;;;20.90;99.90;;;;;;5051665;28;20021;-77
2023/06/20 09:24:28;;;;;;;1999.90;999.90;;;21.00;99.90;;;;;;5062781;28;20384;-76
2023/06/20 09:26:54;;;;;;;1999.90;999.90;;;21.00;99.90;;;;;;5052643;28;20047;-77
2023/06/20 09:29:19;;;;;;;1999.90;999.90;;;21.00;99.90;;;;;;5062391;28;20044;-75
2023/06/20 09:31:48;;;;;;;1999.90;999.90;;;21.00;99.90;;;;;;5066335;28;20119;-71
2023/06/20 09:34:16;;;;;;;1999.90;999.90;;;21.10;99.90;;;;;;5064941;28;20052;-74
2023/06/20 09:36:42;;;;;;;1999.90;999.90;;;21.20;99.90;;;;;;5066178;28;20067;-74
2023/06/20 09:39:22;;;;;;;1999.90;999.90;;;21.10;99.90;;;;;;5057855;28;20054;-74
2023/06/20 09:41:52;;;;;;;1999.90;999.90;;;21.20;99.90;;;;;;5053284;28;20025;-74
2023/06/20 09:44:19;;;;;;;1999.90;999.90;;;21.20;99.90;;;;;;5057098;28;20033;-75
2023/06/20 09:46:45;;;;;;;1999.90;999.90;;;21.30;99.90;;;;;;5062106;28;20028;-72
2023/06/20 09:49:13;;;;;;;1999.90;999.90;;;21.30;99.90;;;;;;5051579;28;20079;-74
2023/06/20 09:51:48;;;;;;;1999.90;999.90;;;21.30;99.90;;;;;;5064345;28;20021;-74
2023/06/20 09:54:22;;;;;;;1999.90;999.90;;;21.10;99.90;;;;;;5057452;28;20029;-73
2023/06/20 09:56:54;;;;;;;1999.90;999.90;;;21.10;99.90;;;;;;5057767;28;20048;-74
2023/06/20 09:59:21;;;;;;;1999.90;999.90;;;21.10;99.90;;;;;;5066863;28;20067;-74
2023/06/20 10:01:49;;;;;;;1999.90;999.90;;;21.10;99.90;;;;;;5061248;28;20475;-75
2023/06/20 10:04:15;;;;;;;1999.90;999.90;;;21.10;99.90;;;;;;5059596;28;20021;-75
2023/06/20 10:06:41;;;;;;;1999.90;999.90;;;21.20;99.90;;;;;;5062996;28;20388;-75
2023/06/20 10:09:07;;;;;;;1999.90;999.90;;;21.10;99.90;;;;;;5055895;28;20059;-74
2023/06/20 10:11:38;;;;;;;1999.90;999.90;;;21.10;99.90;;;;;;5071076;28;20028;-73
2023/06/20 10:14:04;;;;;;;1999.90;999.90;;;21.10;99.90;;;;;;5057735;28;20031;-75
2023/06/20 10:16:30;;;;;;;1999.90;999.90;;;21.00;99.90;;;;;;5054821;28;20116;-76
2023/06/20 10:18:56;;;;;;;1999.90;999.90;;;21.00;99.90;;;;;;5061211;28;20024;-76
2023/06/20 10:21:59;;;;;;;1999.90;999.90;;;20.90;99.90;;;;;;5066478;28;20029;-75
2023/06/20 10:24:30;;;;;;;1999.90;999.90;;;20.80;99.90;;;;;;5059589;28;20020;-78
2023/06/20 10:27:03;;;;;;;1999.90;999.90;;;20.80;99.90;;;;;;5051940;28;20380;-75
2023/06/20 10:29:28;;;;;;;;;;;20.80;99.90;;;;;;5057425;28;20507;-75
2023/06/20 10:31:57;;;;;;;1999.90;999.90;;;20.70;99.90;;;;;;5059329;28;19915;-75
2023/06/20 10:34:50;;;;;;;1999.90;999.90;;;20.70;99.90;;;;;;5066784;28;20071;-75
2023/06/20 10:37:33;;;;;;;1999.90;999.90;;;20.70;99.90;;;;;;5060743;28;20055;-75
2023/06/20 10:39:58;;;;;;;1999.90;999.90;;;20.70;99.90;;;;;;5061759;28;20033;-74
2023/06/20 10:42:41;;;;;;;1999.90;999.90;;;20.70;99.90;;;;;;5049807;28;20028;-74
2023/06/20 10:45:20;;;;;;;1999.90;999.90;;;20.70;99.90;;;;;;5056979;28;20025;-76
2023/06/20 10:47:47;;;;;;;1999.90;999.90;;;20.40;99.90;;;;;;5060399;28;20390;-77
2023/06/20 11:14:52;;;;;;;1999.90;999.90;;;19.80;99.90;;;;;;5066765;28;20438;-74
2023/06/20 11:17:18;;;;;;;1999.90;999.90;;;19.90;99.90;;;;;;5046294;28;20057;-74
2023/06/20 11:19:43;;;;;;;1999.90;999.90;;;20.00;99.90;;;;;;5049025;28;20488;-82
2023/06/20 11:22:09;;;;;;;1999.90;999.90;;;20.10;99.90;;;;;;5048242;28;20044;-81
2023/06/20 11:24:36;;;;;;;1999.90;999.90;;;20.10;99.90;;;;;;5044507;28;20056;-74
2023/06/20 11:27:14;;;;;;;1999.90;999.90;;;20.30;99.90;;;;;;5047032;28;20036;-73
2023/06/20 11:29:40;;;;;;;1999.90;999.90;;;20.20;99.90;;;;;;5042299;28;20033;-75
2023/06/20 11:32:10;;;;;;;1999.90;999.90;;;20.20;99.90;;;;;;5045701;28;20033;-81
2023/06/20 11:34:59;;;;;;;1999.90;999.90;;;20.40;99.90;;;;;;5051237;28;20029;-74
2023/06/20 11:37:25;;;;;;;1999.90;999.90;;;20.50;99.90;;;;;;5059692;28;20052;-74
2023/06/20 11:39:52;;;;;;;1999.90;999.90;;;20.90;99.90;;;;;;5044803;28;20392;-74
2023/06/20 11:42:18;;;;;;;1999.90;999.90;;;21.10;99.90;;;;;;5047899;28;20028;-77
2023/06/20 11:44:44;;;;;;;1999.90;999.90;;;21.30;99.90;;;;;;5040451;28;20030;-84
2023/06/20 11:47:10;;;;;;;1999.90;999.90;;;21.60;99.90;;;;;;5043995;28;20100;-82
2023/06/20 11:49:40;;;;;;;1999.90;999.90;;;21.50;99.90;;;;;;5046350;28;20041;-75
2023/06/20 11:52:07;;;;;;;1999.90;999.90;;;21.80;99.90;;;;;;5046326;28;20125;-76
2023/06/20 11:54:51;;;;;;;1999.90;999.90;;;21.80;99.90;;;;;;5055424;28;20029;-76
2023/06/20 11:57:28;;;;;;;1999.90;999.90;;;21.80;99.90;;;;;;5041588;28;20022;-75
2023/06/20 12:00:01;;;;;;;1999.90;999.90;;;22.00;99.90;;;;;;5050463;28;20035;-82
2023/06/20 12:02:26;;;;;;;1999.90;999.90;;;22.20;99.90;;;;;;5041772;28;20036;-77
2023/06/20 12:04:56;;;;;;;1999.90;999.90;;;22.60;99.90;;;;;;5064419;28;20029;-77
2023/06/20 12:07:25;;;;;;;1999.90;999.90;;;23.40;99.90;;;;;;5047479;28;20025;-77
2023/06/20 12:09:51;;;;;;;1999.90;999.90;;;23.60;99.90;;;;;;5043757;28;20140;-78
2023/06/20 12:12:16;;;;;;;1999.90;999.90;;;23.60;99.90;;;;;;5046082;28;20024;-78
2023/06/20 12:14:43;;;;;;;1999.90;999.90;;;24.20;99.90;;;;;;5050405;28;20049;-78
2023/06/20 12:17:09;;;;;;;1999.90;999.90;;;24.10;99.90;;;;;;5044105;28;20033;-81
2023/06/20 12:19:34;;;;;;;1999.90;999.90;;;25.10;99.90;;;;;;5047386;28;20143;-78
2023/06/20 12:22:00;;;;;;;1999.90;999.90;;;25.60;99.90;;;;;;5051243;28;20158;-75
2023/06/20 12:24:28;;;;;;;1999.90;999.90;;;26.10;99.90;;;;;;5047744;28;20075;-77
2023/06/20 12:26:54;;;;;;;1999.90;999.90;;;26.60;99.90;;;;;;5042162;28;20455;-84
2023/06/20 12:29:20;;;;;;;1999.90;999.90;;;25.80;99.90;;;;;;5035473;28;20037;-78
2023/06/20 12:31:46;;;;;;;1999.90;999.90;;;25.40;99.90;;;;;;5037323;28;20575;-75
2023/06/20 12:34:11;;;;;;;1999.90;999.90;;;25.60;99.90;;;;;;5033810;28;20112;-75
2023/06/20 12:36:37;;;;;;;1999.90;999.90;;;26.70;99.90;;;;;;5032141;28;20022;-85
2023/06/20 12:39:03;;;;;;;1999.90;999.90;;;26.70;99.90;;;;;;5036497;28;20616;-82
2023/06/20 12:41:33;;;;;;;1999.90;999.90;;;25.60;99.90;;;;;;5026872;28;20057;-75
2023/06/20 12:43:59;;;;;;;1999.90;999.90;;;24.60;99.90;;;;;;5026773;28;20061;-74
2023/06/20 12:46:25;;;;;;;1999.90;999.90;;;23.80;99.90;;;;;;5033353;28;20025;-74
2023/06/20 12:48:50;;;;;;;1999.90;999.90;;;23.10;99.90;;;;;;5034600;28;20037;-74
2023/06/20 12:51:17;;;;;;;1999.90;999.90;;;22.80;99.90;;;;;;5031220;28;20026;-82
2023/06/20 12:53:43;;;;;;;1999.90;999.90;;;22.40;99.90;;;;;;5035235;28;20128;-74
2023/06/20 12:56:09;;;;;;;1999.90;999.90;;;22.60;99.90;;;;;;5030375;28;20526;-75
2023/06/20 12:58:35;;;;;;;1999.90;999.90;;;22.30;99.90;;;;;;5031373;28;20116;-76
2023/06/20 13:01:00;;;;;;;1999.90;999.90;;;22.30;99.90;;;;;;5029341;28;20033;-75
2023/06/20 13:03:26;;;;;;;1999.90;999.90;;;22.60;99.90;;;;;;5031407;28;20029;-82
2023/06/20 13:05:52;;;;;;;1999.90;999.90;;;22.30;99.90;;;;;;5030532;28;20038;-76
2023/06/20 13:08:18;;;;;;;1999.90;999.90;;;22.10;99.90;;;;;;5031430;28;20078;-76
2023/06/20 13:10:45;;;;;;;1999.90;999.90;;;21.90;99.90;;;;;;5027413;28;20504;-76
2023/06/20 13:13:10;;;;;;;1999.90;999.90;;;22.40;99.90;;;;;;5032582;28;20160;-77
2023/06/20 13:15:36;;;;;;;1999.90;999.90;;;23.50;99.90;;;;;;5031920;28;20136;-85
2023/06/20 13:18:04;;;;;;;1999.90;999.90;;;23.10;99.90;;;;;;5032713;28;20029;-80
2023/06/20 13:20:30;;;;;;;1999.90;999.90;;;22.30;99.90;;;;;;5033879;28;20025;-76
2023/06/20 13:22:57;;;;;;;1999.90;999.90;;;22.00;99.90;;;;;;5030779;28;20034;-76
2023/06/20 13:25:23;;;;;;;1999.90;999.90;;;21.90;99.90;;;;;;5046300;28;20399;-77
2023/06/20 13:27:50;;;;;;;1999.90;999.90;;;21.40;99.90;;;;;;5031364;28;20083;-76
2023/06/20 13:30:17;;;;;;;1999.90;999.90;;;21.50;99.90;;;;;;5030986;28;20037;-80
2023/06/20 13:32:46;;;;;;;1999.90;999.90;;;21.60;99.90;;;;;;5029857;28;20029;-77
2023/06/20 13:35:12;;;;;;;1999.90;999.90;;;21.60;99.90;;;;;;5031369;28;20029;-77
2023/06/20 13:37:41;;;;;;;1999.90;999.90;;;21.70;99.90;;;;;;5035004;28;20044;-76
2023/06/20 13:40:09;;;;;;;1999.90;999.90;;;21.80;99.90;;;;;;5040050;28;20053;-76
2023/06/20 13:42:44;;;;;;;1999.90;999.90;;;21.40;99.90;;;;;;5030779;28;20029;-78
2023/06/20 13:45:11;;;;;;;1999.90;999.90;;;21.00;99.90;;;;;;5038449;28;20487;-79
2023/06/20 13:47:38;;;;;;;1999.90;999.90;;;20.90;99.90;;;;;;5030938;28;20025;-77
2023/06/20 13:50:04;;;;;;;1999.90;999.90;;;20.80;99.90;;;;;;5032161;28;20036;-77
2023/06/20 13:52:30;;;;;;;1999.90;999.90;;;20.70;99.90;;;;;;5033623;28;20025;-78
2023/06/20 13:54:56;;;;;;;1999.90;999.90;;;20.70;99.90;;;;;;5038586;28;20129;-83
2023/06/20 13:57:21;;;;;;;1999.90;999.90;;;20.50;99.90;;;;;;5034743;28;20104;-81
2023/06/20 13:59:47;;;;;;;1999.90;999.90;;;20.30;99.90;;;;;;5031985;28;20559;-78
2023/06/20 14:02:13;;;;;;;1999.90;999.90;;;20.20;99.90;;;;;;5028907;28;20033;-79
2023/06/20 14:04:38;;;;;;;1999.90;999.90;;;20.20;99.90;;;;;;5032990;28;20087;-79
2023/06/20 14:07:06;;;;;;;1999.90;999.90;;;20.20;99.90;;;;;;5035313;28;20032;-78
2023/06/20 14:09:31;;;;;;;1999.90;999.90;;;20.10;99.90;;;;;;5053850;28;20550;-86
2023/06/20 14:11:57;;;;;;;1999.90;999.90;;;20.10;99.90;;;;;;5033863;28;20025;-79
2023/06/20 14:14:28;;;;;;;1999.90;999.90;;;20.20;99.90;;;;;;5034624;28;20151;-79
2023/06/20 14:16:54;;;;;;;1999.90;999.90;;;20.50;99.90;;;;;;5037280;28;20467;-78
2023/06/20 14:19:20;;;;;;;1999.90;999.90;;;20.80;99.90;;;;;;5036395;28;20487;-78
2023/06/20 14:21:46;;;;;;;1999.90;999.90;;;21.10;99.90;;;;;;5029642;28;20033;-86
2023/06/20 14:24:12;;;;;;;1999.90;999.90;;;21.20;99.90;;;;;;5031243;28;20040;-83
2023/06/20 14:26:39;;;;;;;1999.90;999.90;;;21.10;99.90;;;;;;5032925;28;20025;-79
2023/06/20 14:29:05;;;;;;;1999.90;999.90;;;21.50;99.90;;;;;;5030361;28;20233;-79
2023/06/20 14:31:31;;;;;;;1999.90;999.90;;;21.90;99.90;;;;;;5035561;28;20025;-79
2023/06/20 14:33:56;;;;;;;1999.90;999.90;;;22.20;99.90;;;;;;5033919;28;20443;-86
2023/06/20 14:36:24;;;;;;;1999.90;999.90;;;21.70;99.90;;;;;;5037754;28;20362;-79
2023/06/20 14:38:49;;;;;;;1999.90;999.90;;;21.60;99.90;;;;;;5029264;28;20083;-78
2023/06/20 14:41:15;;;;;;;1999.90;999.90;;;21.60;99.90;;;;;;5030381;28;20466;-77
2023/06/20 14:43:41;;;;;;;1999.90;999.90;;;22.10;99.90;;;;;;5029023;28;20029;-78
2023/06/20 14:46:06;;;;;;;1999.90;999.90;;;22.10;99.90;;;;;;5035894;28;20064;-78
2023/06/20 14:48:33;;;;;;;1999.90;999.90;;;22.10;99.90;;;;;;5034950;28;20839;-86
2023/06/20 14:50:59;;;;;;;1999.90;999.90;;;22.40;99.90;;;;;;5040249;28;20458;-77
2023/06/20 14:53:24;;;;;;;1999.90;999.90;;;23.40;99.90;;;;;;5038996;28;20034;-76
2023/06/20 14:55:50;;;;;;;1999.90;999.90;;;23.20;99.90;;;;;;5038607;28;20047;-75
2023/06/20 14:58:16;;;;;;;1999.90;999.90;;;22.80;99.90;;;;;;5037408;28;20024;-75
2023/06/20 15:00:41;;;;;;;1999.90;999.90;;;22.80;99.90;;;;;;5036232;28;20476;-80
2023/06/20 15:03:07;;;;;;;1999.90;999.90;;;22.70;99.90;;;;;;5034972;28;20485;-83
2023/06/20 15:05:33;;;;;;;1999.90;999.90;;;22.90;99.90;;;;;;5029671;28;20035;-74
2023/06/20 15:08:00;;;;;;;1999.90;999.90;;;23.20;99.90;;;;;;5030463;28;20041;-73
2023/06/20 15:10:27;;;;;;;1999.90;999.90;;;24.00;99.90;;;;;;5032974;28;20535;-74
2023/06/20 15:12:53;;;;;;;1999.90;999.90;;;25.00;99.90;;;;;;5030425;28;20489;-84
2023/06/20 15:15:19;;;;;;;1999.90;999.90;;;24.90;99.90;;;;;;5030584;28;20080;-79
2023/06/20 15:17:44;;;;;;;1999.90;999.90;;;24.80;99.90;;;;;;5028324;28;20377;-75
2023/06/20 15:20:10;;;;;;;1999.90;999.90;;;26.10;99.90;;;;;;5029515;28;20048;-75
2023/06/20 15:22:36;;;;;;;1999.90;999.90;;;25.50;99.90;;;;;;5032489;28;20033;-77
2023/06/20 15:25:01;;;;;;;1999.90;999.90;;;25.40;99.90;;;;;;5030880;28;20078;-77
2023/06/20 15:27:27;;;;;;;1999.90;999.90;;;25.50;99.90;;;;;;5031703;28;20021;-76
2023/06/20 15:29:52;;;;;;;1999.90;999.90;;;25.30;99.90;;;;;;5048922;28;20021;-77
2023/06/20 15:32:18;;;;;;;1999.90;999.90;;;24.80;99.90;;;;;;5033675;28;20415;-76
2023/06/20 15:34:44;;;;;;;1999.90;999.90;;;25.20;99.90;;;;;;5047136;28;20057;-77
2023/06/20 15:37:10;;;;;;;1999.90;999.90;;;25.50;99.90;;;;;;5031489;28;20131;-77
2023/06/20 15:39:35;;;;;;;1999.90;999.90;;;24.30;99.90;;;;;;5030485;28;20029;-81
2023/06/20 15:42:02;;;;;;;1999.90;999.90;;;24.50;99.90;;;;;;5031845;28;20036;-80
2023/06/20 15:44:28;;;;;;;1999.90;999.90;;;24.30;99.90;;;;;;5030782;28;20036;-76
2023/06/20 15:46:54;;;;;;;1999.90;999.90;;;24.60;99.90;;;;;;5032310;28;20107;-76